Antonios — SY8410 — position and weather

sailwx.info

Track history (hours):
 
Tides and Currents Weather Stations Pressure Air Temp Water Temp Dewpoint Dewpoint Depression Visibility Wind Speed Wind Dir Waves Ship Positions

Antonios

Last reported at 2015-Jun-27 07:17 UTC. Time now 2015-Jul-01 06:33 UTC.
Position N 36°51' E 026°13'.

Length 57 m; draft 4.1 m.

Type: Tanker. MMSI: 239191300.

Date/timePositionNaut miles runAvg speedWind from/ knotsBaromVisibWave heightAir tempDewpointWater temp
2015-Jun-27 07:17N 36°51' E 026°13'7 9.3
2015-Jun-27 06:32N 36°49' E 026°04'9 9.1
2015-Jun-27 05:32N 36°44' E 025°54'9 8.7
2015-Jun-27 04:31N 36°41' E 025°44'8 8.3
2015-Jun-27 03:32N 36°36' E 025°36'9 9.0
2015-Jun-27 02:33N 36°31' E 025°27'6 6.2
2015-Jun-27 01:33N 36°25' E 025°24'2 2.5
2015-Jun-27 00:34N 36°23' E 025°26'0 0.0
2015-Jun-26 23:32N 36°23' E 025°26'0 0.0
2015-Jun-26 22:32N 36°23' E 025°26'0 0.0
2015-Jun-26 21:28N 36°23' E 025°26'0 0.0
2015-Jun-26 20:33N 36°23' E 025°26'0 0.0
2015-Jun-26 19:33N 36°23' E 025°26'0 0.0
2015-Jun-26 18:33N 36°23' E 025°26'0 0.0
2015-Jun-26 17:28N 36°23' E 025°26'0 0.0
2015-Jun-26 16:32N 36°23' E 025°26'2 2.3
2015-Jun-26 15:33N 36°25' E 025°24'9 9.4
2015-Jun-26 14:33N 36°33' E 025°18'30 9.8
2015-Jun-26 11:31N 36°58' E 024°58'9 9.6
2015-Jun-26 10:33N 37°05' E 025°07'2 1.9
2015-Jun-26 09:33N 37°05' E 025°09'0 0.5
2015-Jun-26 08:33N 37°06' E 025°08'0 0.0
2015-Jun-26 07:32N 37°06' E 025°08'1 0.5
2015-Jun-26 06:33N 37°05' E 025°09'2 1.6
2015-Jun-26 05:33N 37°05' E 025°07'10 9.5
2015-Jun-26 04:33N 37°09' E 024°56'66 9.4
2015-Jun-25 21:33N 37°33' E 023°39'11 9.5
2015-Jun-25 20:25N 37°39' E 023°27'9 8.4
2015-Jun-25 19:23N 37°43' E 023°17'8 9.2
2015-Jun-25 18:33N 37°49' E 023°12'8 4.0
2015-Jun-25 16:33N 37°55' E 023°05'0 0.0
2015-Jun-25 12:33N 37°55' E 023°05'1 0.2
2015-Jun-25 06:30N 37°54' E 023°04'0 0.0
2015-Jun-25 05:33N 37°54' E 023°04'0 0.0
2015-Jun-25 04:17N 37°54' E 023°04'0 0.0
2015-Jun-25 03:30N 37°54' E 023°04'0 0.1
2015-Jun-25 02:33N 37°55' E 023°04'0 0.0
2015-Jun-25 01:33N 37°55' E 023°04'0 0.0
2015-Jun-25 00:26N 37°54' E 023°04'1 1.0
2015-Jun-24 23:33N 37°55' E 023°05'6 5.8
2015-Jun-24 22:33N 37°51' E 023°11'1110.8
2015-Jun-24 21:33N 37°42' E 023°18'9 9.5
2015-Jun-24 20:33N 37°38' E 023°29'1010.3
2015-Jun-24 19:33N 37°32' E 023°39'1010.2
2015-Jun-24 18:33N 37°25' E 023°49'10 9.8
2015-Jun-24 17:33N 37°19' E 023°58'1110.1
2015-Jun-24 16:31N 37°12' E 024°08'1010.3
2015-Jun-24 15:33N 37°05' E 024°17'4110.1
2015-Jun-24 11:29N 36°39' E 024°56'9 9.4
2015-Jun-24 10:33N 36°33' E 025°05'10 9.7
2015-Jun-24 09:33N 36°29' E 025°16'9 9.2
2015-Jun-24 08:33N 36°24' E 025°25'1 0.6
2015-Jun-24 07:33N 36°23' E 025°26'0 0.0
2015-Jun-24 06:33N 36°23' E 025°26'0 0.0
2015-Jun-24 05:33N 36°23' E 025°26'0 0.0
2015-Jun-24 04:33N 36°23' E 025°26'0 0.0
2015-Jun-24 03:32N 36°23' E 025°26'0 0.0
2015-Jun-24 02:32N 36°23' E 025°26'0 0.0
2015-Jun-24 01:32N 36°23' E 025°26'0 0.0
2015-Jun-24 00:32N 36°23' E 025°26'0 0.0
2015-Jun-23 23:32N 36°23' E 025°26'0 0.0
2015-Jun-23 22:32N 36°23' E 025°26'0 0.0
2015-Jun-23 21:33N 36°23' E 025°26'0 0.0
2015-Jun-23 20:33N 36°23' E 025°26'0 0.0
2015-Jun-23 19:33N 36°23' E 025°26'0 0.0
2015-Jun-23 19:05N 36°23' E 025°26'  
2015-Jun-18 11:06N 36°42' E 026°10'610.5
2015-Jun-18 10:33N 36°40' E 026°03'1010.2
2015-Jun-18 09:33N 36°37' E 025°51'1010.0
2015-Jun-18 08:33N 36°34' E 025°39'1010.0
2015-Jun-18 07:33N 36°31' E 025°27'6 6.1
2015-Jun-18 06:33N 36°25' E 025°24'3 2.6
2015-Jun-18 05:33N 36°23' E 025°26'0 0.0
2015-Jun-18 04:32N 36°23' E 025°26'0 0.0
2015-Jun-18 03:33N 36°23' E 025°26'0 0.0
2015-Jun-18 02:32N 36°23' E 025°26'0 0.0
2015-Jun-18 01:32N 36°23' E 025°26'0 0.0
2015-Jun-18 00:26N 36°23' E 025°26'0 0.0
2015-Jun-17 23:33N 36°23' E 025°26'1 1.1
2015-Jun-17 22:28N 36°24' E 025°25'8 9.0
2015-Jun-17 21:33N 36°31' E 025°19'3110.0
2015-Jun-17 18:28N 36°57' E 024°59'9 9.5
2015-Jun-17 17:33N 37°04' E 025°05'4 3.5
2015-Jun-17 16:32N 37°05' E 025°09'0 0.0
2015-Jun-17 15:32N 37°05' E 025°09'0 0.0
2015-Jun-17 14:33N 37°05' E 025°09'0 0.0
2015-Jun-17 13:32N 37°05' E 025°09'0 0.0
2015-Jun-17 12:31N 37°05' E 025°09'0 0.0
2015-Jun-17 11:33N 37°05' E 025°09'0 0.0
2015-Jun-17 10:33N 37°05' E 025°09'0 0.0
2015-Jun-17 09:33N 37°05' E 025°09'1 0.6
2015-Jun-17 08:34N 37°05' E 025°08'9 9.2
2015-Jun-17 07:33N 37°08' E 024°57'  
Track history (hours):
 
Tides and Currents Weather Stations Pressure Air Temp Water Temp Dewpoint Dewpoint Depression Visibility Wind Speed Wind Dir Waves Ship Positions

Antonios

Last reported at 2015-Jun-27 07:17 UTC. Time now 2015-Jul-01 06:33 UTC.
Position N 36°51' E 026°13'.

Length 57 m; draft 4.1 m.

Type: Tanker. MMSI: 239191300.

Date/timePositionNaut miles runAvg speedWind from/ knotsBaromVisibWave heightAir tempDewpointWater temp
2015-Jun-27 07:17N 36°51' E 026°13'7 9.3
2015-Jun-27 06:32N 36°49' E 026°04'9 9.1
2015-Jun-27 05:32N 36°44' E 025°54'9 8.7
2015-Jun-27 04:31N 36°41' E 025°44'8 8.3
2015-Jun-27 03:32N 36°36' E 025°36'9 9.0
2015-Jun-27 02:33N 36°31' E 025°27'6 6.2
2015-Jun-27 01:33N 36°25' E 025°24'2 2.5
2015-Jun-27 00:34N 36°23' E 025°26'0 0.0
2015-Jun-26 23:32N 36°23' E 025°26'0 0.0
2015-Jun-26 22:32N 36°23' E 025°26'0 0.0
2015-Jun-26 21:28N 36°23' E 025°26'0 0.0
2015-Jun-26 20:33N 36°23' E 025°26'0 0.0
2015-Jun-26 19:33N 36°23' E 025°26'0 0.0
2015-Jun-26 18:33N 36°23' E 025°26'0 0.0
2015-Jun-26 17:28N 36°23' E 025°26'0 0.0
2015-Jun-26 16:32N 36°23' E 025°26'2 2.3
2015-Jun-26 15:33N 36°25' E 025°24'9 9.4
2015-Jun-26 14:33N 36°33' E 025°18'30 9.8
2015-Jun-26 11:31N 36°58' E 024°58'9 9.6
2015-Jun-26 10:33N 37°05' E 025°07'2 1.9
2015-Jun-26 09:33N 37°05' E 025°09'0 0.5
2015-Jun-26 08:33N 37°06' E 025°08'0 0.0
2015-Jun-26 07:32N 37°06' E 025°08'1 0.5
2015-Jun-26 06:33N 37°05' E 025°09'2 1.6
2015-Jun-26 05:33N 37°05' E 025°07'10 9.5
2015-Jun-26 04:33N 37°09' E 024°56'66 9.4
2015-Jun-25 21:33N 37°33' E 023°39'11 9.5
2015-Jun-25 20:25N 37°39' E 023°27'9 8.4
2015-Jun-25 19:23N 37°43' E 023°17'8 9.2
2015-Jun-25 18:33N 37°49' E 023°12'8 4.0
2015-Jun-25 16:33N 37°55' E 023°05'0 0.0
2015-Jun-25 12:33N 37°55' E 023°05'1 0.2
2015-Jun-25 06:30N 37°54' E 023°04'0 0.0
2015-Jun-25 05:33N 37°54' E 023°04'0 0.0
2015-Jun-25 04:17N 37°54' E 023°04'0 0.0
2015-Jun-25 03:30N 37°54' E 023°04'0 0.1
2015-Jun-25 02:33N 37°55' E 023°04'0 0.0
2015-Jun-25 01:33N 37°55' E 023°04'0 0.0
2015-Jun-25 00:26N 37°54' E 023°04'1 1.0
2015-Jun-24 23:33N 37°55' E 023°05'6 5.8
2015-Jun-24 22:33N 37°51' E 023°11'1110.8
2015-Jun-24 21:33N 37°42' E 023°18'9 9.5
2015-Jun-24 20:33N 37°38' E 023°29'1010.3
2015-Jun-24 19:33N 37°32' E 023°39'1010.2
2015-Jun-24 18:33N 37°25' E 023°49'10 9.8
2015-Jun-24 17:33N 37°19' E 023°58'1110.1
2015-Jun-24 16:31N 37°12' E 024°08'1010.3
2015-Jun-24 15:33N 37°05' E 024°17'4110.1
2015-Jun-24 11:29N 36°39' E 024°56'9 9.4
2015-Jun-24 10:33N 36°33' E 025°05'10 9.7
2015-Jun-24 09:33N 36°29' E 025°16'9 9.2
2015-Jun-24 08:33N 36°24' E 025°25'1 0.6
2015-Jun-24 07:33N 36°23' E 025°26'0 0.0
2015-Jun-24 06:33N 36°23' E 025°26'0 0.0
2015-Jun-24 05:33N 36°23' E 025°26'0 0.0
2015-Jun-24 04:33N 36°23' E 025°26'0 0.0
2015-Jun-24 03:32N 36°23' E 025°26'0 0.0
2015-Jun-24 02:32N 36°23' E 025°26'0 0.0
2015-Jun-24 01:32N 36°23' E 025°26'0 0.0
2015-Jun-24 00:32N 36°23' E 025°26'0 0.0
2015-Jun-23 23:32N 36°23' E 025°26'0 0.0
2015-Jun-23 22:32N 36°23' E 025°26'0 0.0
2015-Jun-23 21:33N 36°23' E 025°26'0 0.0
2015-Jun-23 20:33N 36°23' E 025°26'0 0.0
2015-Jun-23 19:33N 36°23' E 025°26'0 0.0
2015-Jun-23 19:05N 36°23' E 025°26'  
2015-Jun-18 11:06N 36°42' E 026°10'610.5
2015-Jun-18 10:33N 36°40' E 026°03'1010.2
2015-Jun-18 09:33N 36°37' E 025°51'1010.0
2015-Jun-18 08:33N 36°34' E 025°39'1010.0
2015-Jun-18 07:33N 36°31' E 025°27'6 6.1
2015-Jun-18 06:33N 36°25' E 025°24'3 2.6
2015-Jun-18 05:33N 36°23' E 025°26'0 0.0
2015-Jun-18 04:32N 36°23' E 025°26'0 0.0
2015-Jun-18 03:33N 36°23' E 025°26'0 0.0
2015-Jun-18 02:32N 36°23' E 025°26'0 0.0
2015-Jun-18 01:32N 36°23' E 025°26'0 0.0
2015-Jun-18 00:26N 36°23' E 025°26'0 0.0
2015-Jun-17 23:33N 36°23' E 025°26'1 1.1
2015-Jun-17 22:28N 36°24' E 025°25'8 9.0
2015-Jun-17 21:33N 36°31' E 025°19'3110.0
2015-Jun-17 18:28N 36°57' E 024°59'9 9.5
2015-Jun-17 17:33N 37°04' E 025°05'4 3.5
2015-Jun-17 16:32N 37°05' E 025°09'0 0.0
2015-Jun-17 15:32N 37°05' E 025°09'0 0.0
2015-Jun-17 14:33N 37°05' E 025°09'0 0.0
2015-Jun-17 13:32N 37°05' E 025°09'0 0.0
2015-Jun-17 12:31N 37°05' E 025°09'0 0.0
2015-Jun-17 11:33N 37°05' E 025°09'0 0.0
2015-Jun-17 10:33N 37°05' E 025°09'0 0.0
2015-Jun-17 09:33N 37°05' E 025°09'1 0.6
2015-Jun-17 08:34N 37°05' E 025°08'9 9.2
2015-Jun-17 07:33N 37°08' E 024°57'  

Dump ship's entire track history